Share

Pudasjarvi, Finland

11:35 AM EEST on April 25, 2014 (GMT +0300)
Oulu (EFOU) Elev 49 ft | 64.93 °N, 25.35 °E | Change Station

Current weather conditions updated 15 minutes ago

Clear
Clear
48 °F
Feels Like 48 °F
N
4
Wind Variable Wind from NNW
Sunrise 4:58 AM
Sunset 9:24 PM
Moon Waning Crescent

Today is forecast to be nearly the same temperature as yesterday.

Pressure 30.21 in
Visibility -9999.0 miles
Clouds
Dew Point 28 °F
Humidity 46%
Rainfall 0.00 in
Snow Depth Not available.
UV Not available.
Pollen Not available.
Air Quality Not available.
Flu Activity Not available.
METAR EFOU 250820Z AUTO 34003KT 280V090 CAVOK 09/M02 Q1023

More Conditions Fewer Conditions

Pressure 30.21 in
Visibility -9999.0 miles
Clouds
Dew Point 28 °F
Humidity 46%
Rainfall 0.00 in
Snow Depth Not available.
UV Not available.
Pollen Not available.
Air Quality Not available.
Flu Activity Not available.
METAR EFOU 250820Z AUTO 34003KT 280V090 CAVOK 09/M02 Q1023

More Conditions Fewer Conditions

10-Day Weather Forecast

Almanac

Astronomy

Apr. 25, 2014 Rise Set
Actual Time 4:58 AM EEST 9:24 PM EEST
Civil Twilight 3:50 AM EEST 10:33 PM EEST
Nautical Twilight 1:42 AM EEST 12:37 AM EEST
Astronomical Twilight Sun does not rise Sun does not rise
Moon 4:18 AM EEST 3:51 PM EEST
Length of Visible Light 18h 43m
Length of Day
16h 26m
Tomorrow will be 7m 13s longer.
Waning Crescent, 18% of the Moon is Illuminated
Today
Waning Crescent
Apr 29
New
May 6
First Quarter
May 14
Full
May 21
Last Quarter

Yesterday's Extremes

Country Highs Country Lows

Community

  • Deer in evening light
    Deer in evening light
  • Critter
    Critter
  • Jone Runs Falls
    Jone Runs Falls
  • Easter in Shenandoah National Park
    Easter in Shenandoah National Park
  • Sunset at Apalachicola Bay, Florida
    Sunset at Apalachicola Bay, Florida

WunderPhotos

Upload Photos

1,704,874 photos uploaded!

WunderBlogs® & News

Nearby

Snow Depth

Not available.

Coastal Water Temperatures

Place Temperature
No Stations Reporting

Earthquake Activity

City Distance Mag. Time & Date
No recent earthquake activity has been reported nearby.
Minimum magnitude displayed is 2.5.

Nearby Weather Stations

There are no personal weather stations in this area.

What do you think?

We're not finished. Please let us know what you like, what you don't like, and what you are still missing.